Time;durP1;ratioP1;P1;durP2;ratioP2;P2;SDS_P1;SDS_P2;PMS_P1;PMS_P2;Temp;Humidity;BMP_temperature;BMP_pressure;BME280_temperature;BME280_humidity;BME280_pressure;Samples;Min_cycle;Max_cycle;Signal;HPM_P1;HPM_P2
2022/02/22 00:02:10;;;;;;;3.37;1.73;;;5.80;99.90;;;;;;5072794;27;20204;-71
2022/02/22 00:04:38;;;;;;;3.07;1.20;;;5.90;99.90;;;;;;5024209;28;20216;-70
2022/02/22 00:07:05;;;;;;;5.83;1.10;;;5.80;99.90;;;;;;5099734;27;20483;-71
2022/02/22 00:09:32;;;;;;;3.07;1.10;;;5.90;99.90;;;;;;5046619;28;20465;-68
2022/02/22 00:11:58;;;;;;;2.30;1.17;;;5.90;99.90;;;;;;5079694;28;20438;-69
2022/02/22 00:14:24;;;;;;;3.17;1.10;;;5.90;99.90;;;;;;5036892;27;20984;-71
2022/02/22 00:16:55;;;;;;;2.13;1.10;;;5.90;99.90;;;;;;5046373;28;20226;-69
2022/02/22 00:19:27;;;;;;;2.83;0.90;;;5.80;99.90;;;;;;5033687;27;20459;-70
2022/02/22 00:21:54;;;;;;;7.93;1.60;;;5.80;99.90;;;;;;5148815;27;20489;-70
2022/02/22 00:24:20;;;;;;;1.77;1.23;;;5.80;99.90;;;;;;5139404;27;21070;-70
2022/02/22 00:26:46;;;;;;;3.17;1.17;;;5.90;99.90;;;;;;5164386;27;20456;-68
2022/02/22 00:29:12;;;;;;;2.20;0.87;;;5.90;99.90;;;;;;5037638;27;20466;-69
2022/02/22 00:31:38;;;;;;;2.13;1.10;;;5.90;99.90;;;;;;5032268;27;20215;-68
2022/02/22 00:34:05;;;;;;;1.43;1.17;;;5.90;99.90;;;;;;5084502;27;20235;-69
2022/02/22 00:36:33;;;;;;;4.57;1.33;;;5.90;99.90;;;;;;5047238;27;20216;-69
2022/02/22 00:38:59;;;;;;;5.70;1.03;;;5.90;99.90;;;;;;5016374;28;20506;-69
2022/02/22 00:41:24;;;;;;;3.97;1.07;;;5.80;99.90;;;;;;5031277;27;20486;-69
2022/02/22 00:43:50;;;;;;;7.33;1.73;;;5.80;99.90;;;;;;5075899;27;20473;-70
2022/02/22 00:46:16;;;;;;;6.73;1.20;;;5.80;99.90;;;;;;5085721;27;20222;-70
2022/02/22 00:48:41;;;;;;;1.37;0.80;;;5.70;99.90;;;;;;5079840;27;20585;-70
2022/02/22 00:51:07;;;;;;;3.13;1.20;;;5.80;99.90;;;;;;5043230;28;20237;-70
2022/02/22 00:53:33;;;;;;;1.10;1.00;;;5.80;99.90;;;;;;5057105;27;20580;-69
2022/02/22 00:55:58;;;;;;;0.90;0.90;;;5.80;99.90;;;;;;5043792;28;20319;-70
2022/02/22 00:58:24;;;;;;;3.57;0.93;;;5.80;99.90;;;;;;5066407;27;20223;-70
2022/02/22 01:00:50;;;;;;;2.00;0.80;;;5.80;99.90;;;;;;5036907;28;20227;-70
2022/02/22 01:03:15;;;;;;;4.13;2.30;;;5.80;99.90;;;;;;5040146;27;20702;-69
2022/02/22 01:05:41;;;;;;;5.63;1.87;;;5.70;99.90;;;;;;5074131;27;20216;-70
2022/02/22 01:08:07;;;;;;;3.30;0.83;;;5.70;99.90;;;;;;5163527;27;20289;-71
2022/02/22 01:10:33;;;;;;;4.93;1.10;;;5.70;99.90;;;;;;5085685;27;20311;-70
2022/02/22 01:12:59;;;;;;;2.70;0.77;;;5.70;99.90;;;;;;5063652;27;20643;-70
2022/02/22 01:15:25;;;;;;;3.33;1.50;;;5.80;99.90;;;;;;5052561;27;20546;-70
2022/02/22 01:17:51;;;;;;;3.60;1.50;;;5.80;99.90;;;;;;5128606;27;20219;-69
2022/02/22 01:20:16;;;;;;;5.57;1.27;;;5.80;99.90;;;;;;5093558;27;20462;-70
2022/02/22 01:22:42;;;;;;;2.70;1.20;;;5.80;99.90;;;;;;5106301;27;20259;-69
2022/02/22 01:25:10;;;;;;;1.23;1.10;;;5.80;99.90;;;;;;5087353;27;20212;-69
2022/02/22 01:27:37;;;;;;;3.10;1.40;;;5.80;99.90;;;;;;5035580;28;20541;-69
2022/02/22 01:30:07;;;;;;;2.23;1.13;;;5.80;99.90;;;;;;5069818;27;20465;-70
2022/02/22 01:32:33;;;;;;;2.80;1.23;;;5.70;99.90;;;;;;5026707;27;20972;-69
2022/02/22 01:34:59;;;;;;;4.87;1.63;;;5.80;99.90;;;;;;5100275;27;20477;-70
2022/02/22 01:37:25;;;;;;;15.70;1.63;;;5.80;99.90;;;;;;5082597;27;20251;-70
2022/02/22 01:39:51;;;;;;;1.30;1.10;;;5.80;99.90;;;;;;5008876;28;20458;-69
2022/02/22 01:42:16;;;;;;;2.00;1.13;;;5.80;99.90;;;;;;5070522;27;20208;-70
2022/02/22 01:44:46;;;;;;;4.00;1.37;;;5.80;99.90;;;;;;5087161;27;20228;-71
2022/02/22 01:47:16;;;;;;;4.63;1.40;;;5.80;99.90;;;;;;5110774;27;20204;-70
2022/02/22 01:49:45;;;;;;;3.00;1.40;;;5.80;99.90;;;;;;5062889;28;21030;-69
2022/02/22 01:52:11;;;;;;;3.87;1.33;;;5.80;99.90;;;;;;5025208;28;20454;-69
2022/02/22 01:54:37;;;;;;;3.73;1.20;;;5.80;99.90;;;;;;5021660;28;20446;-69
2022/02/22 01:57:04;;;;;;;1.53;1.43;;;5.80;99.90;;;;;;5090319;27;20465;-69
2022/02/22 01:59:29;;;;;;;2.30;1.63;;;5.80;99.90;;;;;;5074407;27;20489;-70
2022/02/22 02:01:55;;;;;;;2.23;1.40;;;5.80;99.90;;;;;;5006356;28;20490;-69
2022/02/22 02:04:21;;;;;;;10.33;1.50;;;5.90;99.90;;;;;;5021810;28;20228;-69
2022/02/22 02:06:47;;;;;;;3.17;1.43;;;5.90;99.90;;;;;;5025463;28;20528;-70
2022/02/22 02:09:13;;;;;;;2.30;1.27;;;5.80;99.90;;;;;;5029175;28;20224;-69
2022/02/22 02:11:56;;;;;;;1.70;1.30;;;5.80;99.90;;;;;;5032465;28;21127;-68
2022/02/22 02:14:24;;;;;;;20.77;1.93;;;5.80;99.90;;;;;;5047012;27;20458;-67
2022/02/22 02:16:50;;;;;;;2.33;1.30;;;5.80;99.90;;;;;;5027814;28;20514;-70
2022/02/22 02:19:21;;;;;;;3.53;1.37;;;5.80;99.90;;;;;;5023773;27;20467;-70
2022/02/22 02:21:48;;;;;;;4.30;1.97;;;5.80;99.90;;;;;;5106949;27;20464;-71
2022/02/22 02:24:13;;;;;;;6.50;1.47;;;5.80;99.90;;;;;;5083280;27;20466;-69
2022/02/22 02:26:40;;;;;;;1.50;0.97;;;5.80;99.90;;;;;;5004966;28;20909;-70
2022/02/22 02:29:11;;;;;;;4.13;1.50;;;5.80;99.90;;;;;;5118355;27;20715;-71
2022/02/22 02:31:38;;;;;;;1.97;1.13;;;5.80;99.90;;;;;;5005198;27;20478;-71
2022/02/22 02:34:05;;;;;;;2.77;1.47;;;5.80;99.90;;;;;;5062128;27;20485;-69
2022/02/22 02:36:32;;;;;;;1.80;0.80;;;5.80;99.90;;;;;;5028381;27;20474;-69
2022/02/22 02:38:58;;;;;;;9.03;1.63;;;5.80;99.90;;;;;;5007682;28;20470;-69
2022/02/22 02:41:25;;;;;;;3.83;1.27;;;5.80;99.90;;;;;;5061525;27;20476;-69
2022/02/22 02:43:51;;;;;;;7.13;1.63;;;5.80;99.90;;;;;;5055090;27;20296;-70
2022/02/22 02:46:17;;;;;;;4.83;1.50;;;5.80;99.90;;;;;;5024604;27;20458;-69
2022/02/22 02:48:42;;;;;;;1.10;1.00;;;5.80;99.90;;;;;;5038056;27;20455;-69
2022/02/22 02:51:08;;;;;;;3.77;1.50;;;5.80;99.90;;;;;;5060183;27;20623;-69
2022/02/22 02:53:34;;;;;;;1.57;1.47;;;5.80;99.90;;;;;;5033582;27;20597;-70
2022/02/22 02:55:59;;;;;;;3.03;1.50;;;5.80;99.90;;;;;;5056650;27;20359;-70
2022/02/22 02:58:25;;;;;;;4.73;1.93;;;5.70;99.90;;;;;;5026687;27;20219;-69
2022/02/22 03:00:51;;;;;;;4.80;1.70;;;5.70;99.90;;;;;;5047465;27;20215;-69
2022/02/22 03:03:16;;;;;;;1.67;0.80;;;5.70;99.90;;;;;;5062040;28;20721;-69
2022/02/22 03:05:42;;;;;;;2.40;1.20;;;5.80;99.90;;;;;;5051853;27;20260;-70
2022/02/22 03:08:08;;;;;;;4.17;1.57;;;5.80;99.90;;;;;;5066636;27;20216;-70
2022/02/22 03:10:33;;;;;;;4.17;1.43;;;5.80;99.90;;;;;;5131440;27;20236;-70
2022/02/22 03:12:59;;;;;;;11.70;1.67;;;5.70;99.90;;;;;;5065421;28;20223;-69
2022/02/22 03:15:25;;;;;;;1.10;1.00;;;5.70;99.90;;;;;;5038539;28;20219;-67
2022/02/22 03:17:50;;;;;;;6.33;1.43;;;5.70;99.90;;;;;;5011265;28;20219;-71
2022/02/22 03:20:16;;;;;;;3.13;1.37;;;5.70;99.90;;;;;;5056015;27;20300;-68
2022/02/22 03:22:45;;;;;;;5.77;2.10;;;5.70;99.90;;;;;;5089790;27;20228;-69
2022/02/22 03:25:12;;;;;;;2.10;0.90;;;5.70;99.90;;;;;;5104325;27;20227;-72
2022/02/22 03:27:38;;;;;;;2.90;1.20;;;5.60;99.90;;;;;;5043855;27;20524;-69
2022/02/22 03:30:05;;;;;;;3.33;1.60;;;5.60;99.90;;;;;;5027805;28;20537;-69
2022/02/22 03:32:31;;;;;;;5.40;1.43;;;5.50;99.90;;;;;;5074280;27;20482;-70
2022/02/22 03:34:57;;;;;;;2.10;0.93;;;5.50;99.90;;;;;;5048754;27;20481;-70
2022/02/22 03:37:22;;;;;;;4.70;1.90;;;5.40;99.90;;;;;;5056689;27;20244;-70
2022/02/22 03:39:48;;;;;;;2.20;1.30;;;5.30;99.90;;;;;;5029658;28;20259;-69
2022/02/22 03:42:14;;;;;;;7.60;1.93;;;5.30;99.90;;;;;;5051333;27;20230;-70
2022/02/22 03:44:39;;;;;;;3.67;1.50;;;5.30;99.90;;;;;;5062681;27;20258;-69
2022/02/22 03:47:05;;;;;;;4.53;1.30;;;5.20;99.90;;;;;;5043959;27;20219;-72
2022/02/22 03:49:30;;;;;;;9.20;1.20;;;5.20;99.90;;;;;;5074580;28;20232;-69
2022/02/22 03:51:56;;;;;;;8.43;2.37;;;5.20;99.90;;;;;;5007678;28;20232;-69
2022/02/22 03:54:22;;;;;;;5.93;1.23;;;5.10;99.90;;;;;;5018265;27;20227;-70
2022/02/22 03:56:47;;;;;;;3.30;1.07;;;5.10;99.90;;;;;;5076858;27;20755;-73
2022/02/22 03:59:13;;;;;;;10.13;1.33;;;5.10;99.90;;;;;;5104029;27;20314;-69
2022/02/22 04:01:39;;;;;;;1.47;1.37;;;5.20;99.90;;;;;;5041735;27;20637;-69
2022/02/22 04:04:04;;;;;;;2.77;1.27;;;5.20;99.90;;;;;;5027341;28;20285;-70
2022/02/22 04:06:30;;;;;;;1.23;0.90;;;5.20;99.90;;;;;;5077513;27;20700;-70
2022/02/22 04:08:57;;;;;;;5.43;1.40;;;5.20;99.90;;;;;;5149189;27;20219;-70
2022/02/22 04:11:23;;;;;;;1.00;1.00;;;5.20;99.90;;;;;;5078081;27;20455;-69
2022/02/22 04:13:48;;;;;;;2.00;1.30;;;5.20;99.90;;;;;;5097943;27;21034;-70
2022/02/22 04:16:14;;;;;;;3.10;1.07;;;5.20;99.90;;;;;;5034325;28;20702;-69
2022/02/22 04:18:40;;;;;;;13.37;2.80;;;5.20;99.90;;;;;;5025631;28;20951;-69
2022/02/22 04:21:05;;;;;;;3.33;1.60;;;5.20;99.90;;;;;;5109189;27;20500;-69
2022/02/22 04:23:31;;;;;;;8.17;1.37;;;5.10;99.90;;;;;;5068914;27;20786;-69
2022/02/22 04:25:57;;;;;;;6.17;1.93;;;5.10;99.90;;;;;;5106499;27;20273;-69
2022/02/22 04:28:22;;;;;;;4.43;1.17;;;5.10;99.90;;;;;;5056546;28;20220;-70
2022/02/22 04:30:48;;;;;;;7.37;1.50;;;5.10;99.90;;;;;;5074699;27;20219;-69
2022/02/22 04:33:14;;;;;;;6.77;2.03;;;5.10;99.90;;;;;;5046597;27;20339;-70
2022/02/22 04:35:39;;;;;;;9.13;1.27;;;5.10;99.90;;;;;;5161373;27;20387;-69
2022/02/22 04:38:05;;;;;;;7.17;1.10;;;5.10;99.90;;;;;;5073814;28;20225;-71
2022/02/22 04:40:31;;;;;;;9.73;2.00;;;5.10;99.90;;;;;;5037355;27;20238;-69
2022/02/22 04:42:57;;;;;;;1.90;1.37;;;5.10;99.90;;;;;;5130591;27;20315;-69
2022/02/22 04:45:23;;;;;;;7.13;1.93;;;5.00;99.90;;;;;;5101861;27;20243;-69
2022/02/22 04:47:48;;;;;;;4.57;1.00;;;5.00;99.90;;;;;;5081409;27;20492;-68
2022/02/22 04:50:17;;;;;;;4.43;1.93;;;4.90;99.90;;;;;;5031258;28;20224;-70
2022/02/22 04:52:43;;;;;;;4.70;1.23;;;4.90;99.90;;;;;;5094019;27;20224;-69
2022/02/22 04:55:09;;;;;;;4.97;1.50;;;4.90;99.90;;;;;;5129926;27;20466;-69
2022/02/22 04:57:36;;;;;;;5.70;1.57;;;4.90;99.90;;;;;;5109210;27;20544;-69
2022/02/22 05:00:05;;;;;;;2.73;1.53;;;4.90;99.90;;;;;;5127993;27;20549;-73
2022/02/22 05:02:31;;;;;;;4.17;1.70;;;4.90;99.90;;;;;;5114165;27;20450;-70
2022/02/22 05:04:57;;;;;;;1.87;1.10;;;4.90;99.90;;;;;;5053049;27;20540;-70
2022/02/22 05:07:22;;;;;;;6.57;1.80;;;4.90;99.90;;;;;;5139012;27;20295;-69
2022/02/22 05:09:48;;;;;;;6.20;0.97;;;4.80;99.90;;;;;;5107461;27;20306;-72
2022/02/22 05:12:14;;;;;;;8.20;1.53;;;4.90;99.90;;;;;;5037362;27;20238;-68
2022/02/22 05:14:40;;;;;;;4.37;1.60;;;4.80;99.90;;;;;;5077023;27;20454;-70
2022/02/22 05:17:05;;;;;;;7.67;1.90;;;4.80;99.90;;;;;;5047857;27;20277;-70
2022/02/22 05:19:31;;;;;;;2.60;1.50;;;4.80;99.90;;;;;;5041071;27;20216;-69
2022/02/22 05:21:57;;;;;;;2.67;1.07;;;4.80;99.90;;;;;;5066558;27;20212;-69
2022/02/22 05:24:22;;;;;;;8.60;1.40;;;4.80;99.90;;;;;;5022624;28;20227;-68
2022/02/22 05:26:48;;;;;;;3.27;1.33;;;4.80;99.90;;;;;;5031670;28;20274;-69
2022/02/22 05:29:14;;;;;;;1.80;1.07;;;4.80;99.90;;;;;;5009996;28;20227;-69
2022/02/22 05:31:40;;;;;;;2.67;1.67;;;4.70;99.90;;;;;;5059684;27;20233;-69
2022/02/22 05:34:05;;;;;;;10.20;1.43;;;4.70;99.90;;;;;;5071090;27;20733;-68
2022/02/22 05:36:31;;;;;;;4.00;1.50;;;4.70;99.90;;;;;;5090835;27;20467;-71
2022/02/22 05:38:57;;;;;;;5.23;2.00;;;4.70;99.90;;;;;;5025473;28;20665;-69
2022/02/22 05:41:22;;;;;;;3.03;1.37;;;4.60;99.90;;;;;;5019028;27;20216;-69
2022/02/22 05:43:49;;;;;;;7.87;1.13;;;4.60;99.90;;;;;;5028481;28;20231;-69
2022/02/22 05:46:16;;;;;;;3.93;1.50;;;4.60;99.90;;;;;;5009440;27;20224;-70
2022/02/22 05:48:42;;;;;;;4.13;1.03;;;4.60;99.90;;;;;;5025959;28;20490;-70
2022/02/22 05:51:08;;;;;;;2.17;1.50;;;4.60;99.90;;;;;;5099112;27;20523;-70
2022/02/22 05:53:34;;;;;;;4.17;1.40;;;4.60;99.90;;;;;;5044511;27;20542;-69
2022/02/22 05:56:01;;;;;;;11.30;1.63;;;4.60;99.90;;;;;;5022735;28;20531;-69
2022/02/22 05:58:26;;;;;;;9.37;2.10;;;4.60;99.90;;;;;;5105022;27;20450;-73
2022/02/22 06:00:52;;;;;;;3.60;1.80;;;4.60;99.90;;;;;;5067324;27;20507;-70
2022/02/22 06:03:17;;;;;;;5.17;1.90;;;4.60;99.90;;;;;;5089273;27;20281;-71
2022/02/22 06:05:43;;;;;;;6.47;1.80;;;4.60;99.90;;;;;;5017889;28;20219;-69
2022/02/22 06:08:09;;;;;;;3.33;1.40;;;4.50;99.90;;;;;;5089202;27;20238;-69
2022/02/22 06:10:34;;;;;;;2.40;1.33;;;4.50;99.90;;;;;;5035171;27;20216;-70
2022/02/22 06:13:00;;;;;;;5.10;2.23;;;4.50;99.90;;;;;;5057706;28;20219;-69
2022/02/22 06:15:26;;;;;;;1.80;0.97;;;4.50;99.90;;;;;;5123776;27;20362;-69
2022/02/22 06:17:51;;;;;;;3.43;1.47;;;4.50;99.90;;;;;;5090394;27;20228;-69
2022/02/22 06:20:17;;;;;;;3.00;2.00;;;4.50;99.90;;;;;;5079187;27;20232;-68
2022/02/22 06:22:45;;;;;;;5.70;1.80;;;4.50;99.90;;;;;;5143422;27;20319;-70
2022/02/22 06:25:11;;;;;;;6.03;1.70;;;4.50;99.90;;;;;;5147217;27;20215;-70
2022/02/22 06:27:46;;;;;;;1.47;1.33;;;4.40;99.90;;;;;;5086059;27;20449;-69
2022/02/22 06:30:12;;;;;;;9.47;1.80;;;4.40;99.90;;;;;;5004899;28;20607;-70
2022/02/22 06:32:37;;;;;;;5.50;2.10;;;4.40;99.90;;;;;;5048030;27;20461;-69
2022/02/22 06:35:03;;;;;;;3.33;1.67;;;4.40;99.90;;;;;;5038313;28;20455;-69
2022/02/22 06:37:29;;;;;;;7.60;1.63;;;4.40;99.90;;;;;;5075043;27;20223;-69
2022/02/22 06:39:55;;;;;;;10.03;1.43;;;4.40;99.90;;;;;;5052617;27;20490;-69
2022/02/22 06:42:20;;;;;;;8.17;1.93;;;4.40;99.90;;;;;;5090593;27;20228;-68
2022/02/22 06:44:46;;;;;;;1.90;1.47;;;4.40;99.90;;;;;;5033377;27;20365;-68
2022/02/22 06:47:12;;;;;;;3.20;1.70;;;4.50;99.90;;;;;;5061544;27;20240;-73
2022/02/22 06:49:37;;;;;;;4.50;1.70;;;4.50;99.90;;;;;;5029082;28;20306;-71
2022/02/22 06:52:03;;;;;;;6.70;2.13;;;4.50;99.90;;;;;;5043503;27;20301;-70
2022/02/22 06:54:29;;;;;;;5.07;2.43;;;4.50;99.90;;;;;;5060185;27;20835;-71
2022/02/22 06:56:55;;;;;;;15.40;1.97;;;4.60;99.90;;;;;;5073639;27;20570;-70
2022/02/22 06:59:21;;;;;;;3.07;1.57;;;4.60;99.90;;;;;;5094863;27;20633;-69
2022/02/22 07:01:47;;;;;;;7.13;1.53;;;4.70;99.90;;;;;;5073307;27;20492;-70
2022/02/22 07:04:12;;;;;;;6.93;1.57;;;4.70;99.90;;;;;;5048877;27;20228;-71
2022/02/22 07:06:38;;;;;;;5.50;1.40;;;4.70;99.90;;;;;;5022436;28;20348;-70
2022/02/22 07:09:04;;;;;;;1.03;1.00;;;4.70;99.90;;;;;;5064948;27;20231;-72
2022/02/22 07:11:30;;;;;;;4.83;2.23;;;4.70;99.90;;;;;;5044336;27;20293;-72
2022/02/22 07:13:56;;;;;;;4.80;2.00;;;4.70;99.90;;;;;;5029424;28;20216;-69
2022/02/22 07:16:21;;;;;;;2.63;1.53;;;4.70;99.90;;;;;;5011739;28;20855;-69
2022/02/22 07:18:47;;;;;;;3.60;1.80;;;4.70;99.90;;;;;;5030625;28;20219;-71
2022/02/22 07:21:13;;;;;;;4.83;1.60;;;4.70;99.90;;;;;;5021980;27;20249;-69
2022/02/22 07:23:38;;;;;;;4.83;2.40;;;4.70;99.90;;;;;;5050842;27;20215;-72
2022/02/22 07:26:04;;;;;;;13.37;1.50;;;4.70;99.90;;;;;;5038470;27;20683;-70
2022/02/22 07:28:30;;;;;;;1.47;1.13;;;4.70;99.90;;;;;;5043974;27;20235;-71
2022/02/22 07:30:55;;;;;;;3.93;1.60;;;4.80;99.90;;;;;;5027244;27;20240;-72
2022/02/22 07:33:21;;;;;;;13.83;2.50;;;4.80;99.90;;;;;;5029676;27;20232;-70
2022/02/22 07:35:47;;;;;;;4.90;1.70;;;4.80;99.90;;;;;;5080858;27;20216;-69
2022/02/22 07:38:13;;;;;;;4.30;2.00;;;4.80;99.90;;;;;;5055181;27;20659;-72
2022/02/22 07:40:38;;;;;;;1.80;1.10;;;4.80;99.90;;;;;;5037023;27;20289;-67
2022/02/22 07:43:04;;;;;;;5.40;1.67;;;4.80;99.90;;;;;;5038327;27;20234;-68
2022/02/22 07:45:30;;;;;;;5.57;1.50;;;4.80;99.90;;;;;;5029461;27;20208;-71
2022/02/22 07:47:56;;;;;;;5.40;2.43;;;4.80;99.90;;;;;;5078456;27;20972;-70
2022/02/22 07:50:21;;;;;;;15.70;2.73;;;4.80;99.90;;;;;;5066580;27;20220;-70
2022/02/22 07:52:47;;;;;;;2.40;2.20;;;4.80;99.90;;;;;;5013285;28;20226;-72
2022/02/22 07:55:14;;;;;;;2.67;1.63;;;4.80;99.90;;;;;;5013386;28;20323;-70
2022/02/22 07:57:40;;;;;;;3.00;1.93;;;4.80;99.90;;;;;;5085347;27;20212;-67
2022/02/22 08:00:08;;;;;;;5.17;2.27;;;4.80;99.90;;;;;;5079194;27;20461;-69
2022/02/22 08:02:34;;;;;;;7.13;2.33;;;4.80;99.90;;;;;;5019370;27;20481;-69
2022/02/22 08:05:00;;;;;;;2.63;1.90;;;4.90;99.90;;;;;;4997650;28;20459;-69
2022/02/22 08:07:26;;;;;;;7.33;2.23;;;4.90;99.90;;;;;;5066043;27;21042;-70
2022/02/22 08:09:52;;;;;;;2.77;2.10;;;5.00;99.90;;;;;;5015811;27;20220;-70
2022/02/22 08:12:17;;;;;;;2.73;1.70;;;5.10;99.90;;;;;;5029784;28;20810;-70
2022/02/22 08:14:43;;;;;;;6.37;1.70;;;5.20;99.90;;;;;;5056003;27;20246;-69
2022/02/22 08:17:09;;;;;;;4.17;1.70;;;5.20;99.90;;;;;;5054344;27;20216;-69
2022/02/22 08:19:34;;;;;;;7.30;1.90;;;5.30;99.90;;;;;;5080569;27;20797;-72
2022/02/22 08:22:00;;;;;;;4.37;2.03;;;5.40;99.90;;;;;;5064818;27;20718;-68
2022/02/22 08:24:26;;;;;;;6.90;2.43;;;5.40;99.90;;;;;;5088206;27;20238;-71
2022/02/22 08:26:54;;;;;;;2.10;1.60;;;5.50;99.90;;;;;;5093740;27;20224;-69
2022/02/22 08:29:20;;;;;;;5.93;2.20;;;5.60;99.90;;;;;;5079665;27;20235;-69
2022/02/22 08:31:46;;;;;;;6.10;2.00;;;5.70;99.90;;;;;;5093647;27;20532;-70
2022/02/22 08:34:11;;;;;;;11.23;2.90;;;5.80;99.90;;;;;;5125573;27;20595;-69
2022/02/22 08:36:37;;;;;;;5.87;2.40;;;5.80;99.90;;;;;;5102250;27;20394;-69
2022/02/22 08:39:03;;;;;;;5.50;2.10;;;5.90;99.90;;;;;;5020016;28;20232;-71
2022/02/22 08:41:29;;;;;;;3.27;1.70;;;6.00;99.90;;;;;;5043759;27;20334;-69
2022/02/22 08:43:55;;;;;;;8.10;2.60;;;6.10;99.90;;;;;;5089556;27;20563;-70
2022/02/22 08:46:21;;;;;;;3.20;1.80;;;6.20;99.90;;;;;;5076327;27;20240;-71
2022/02/22 08:48:47;;;;;;;11.60;2.70;;;6.30;99.90;;;;;;5026447;28;20220;-71
2022/02/22 08:51:13;;;;;;;3.57;2.00;;;6.40;99.90;;;;;;5085528;27;20458;-69
2022/02/22 08:53:38;;;;;;;3.07;2.03;;;6.50;99.90;;;;;;5029698;28;20885;-69
2022/02/22 08:56:06;;;;;;;2.87;1.90;;;6.60;99.90;;;;;;5025592;28;20458;-68
2022/02/22 08:58:31;;;;;;;5.07;1.80;;;6.70;99.90;;;;;;5060680;27;20296;-69
2022/02/22 09:00:58;;;;;;;2.77;1.60;;;6.80;99.90;;;;;;5081720;27;21076;-72
2022/02/22 09:03:24;;;;;;;3.87;1.90;;;6.80;99.90;;;;;;5101695;27;20228;-68
2022/02/22 09:05:50;;;;;;;5.20;2.70;;;6.80;99.90;;;;;;5039461;27;20483;-70
2022/02/22 09:08:15;;;;;;;4.80;2.30;;;6.80;99.90;;;;;;5036165;28;20486;-70
2022/02/22 09:10:44;;;;;;;6.93;2.60;;;6.90;99.90;;;;;;5061750;27;20221;-70
2022/02/22 09:13:10;;;;;;;6.40;2.10;;;6.90;99.90;;;;;;5034524;27;20311;-69
2022/02/22 09:15:37;;;;;;;9.40;1.83;;;7.00;99.90;;;;;;5008191;28;20911;-72
2022/02/22 09:18:03;;;;;;;8.47;1.63;;;7.00;99.90;;;;;;5030402;27;20229;-73
2022/02/22 09:20:29;;;;;;;5.47;2.10;;;7.00;99.90;;;;;;5034117;28;20491;-70
2022/02/22 09:22:55;;;;;;;3.70;1.03;;;7.00;99.90;;;;;;5046527;27;20479;-70
2022/02/22 09:25:22;;;;;;;7.03;2.53;;;7.00;99.90;;;;;;5068711;27;20462;-69
2022/02/22 09:27:49;;;;;;;4.30;1.87;;;7.00;99.90;;;;;;5030893;27;20455;-74
2022/02/22 09:30:17;;;;;;;5.00;1.60;;;7.00;99.90;;;;;;5013280;27;20467;-70
2022/02/22 09:32:44;;;;;;;3.23;1.50;;;7.10;99.90;;;;;;5037406;27;20870;-71
2022/02/22 09:35:13;;;;;;;7.83;1.50;;;7.10;99.90;;;;;;5043052;27;20455;-69
2022/02/22 09:37:39;;;;;;;5.53;1.77;;;7.10;99.90;;;;;;5031853;28;20493;-72
2022/02/22 09:40:05;;;;;;;9.67;1.50;;;7.10;99.90;;;;;;5041886;27;20465;-69
2022/02/22 09:42:31;;;;;;;1.50;1.40;;;7.10;99.90;;;;;;5045062;27;20221;-69
2022/02/22 09:44:56;;;;;;;8.03;2.20;;;7.10;99.90;;;;;;5023566;27;20532;-69
2022/02/22 09:47:22;;;;;;;3.17;1.43;;;7.10;99.90;;;;;;5084712;27;21028;-69
2022/02/22 09:49:48;;;;;;;2.73;1.67;;;7.10;99.90;;;;;;5050623;27;20641;-69
2022/02/22 09:52:14;;;;;;;6.33;2.53;;;7.10;99.90;;;;;;5015359;28;20614;-71
2022/02/22 09:54:39;;;;;;;25.20;12.20;;;7.10;99.90;;;;;;5033011;27;20212;-72
2022/02/22 09:57:05;;;;;;;17.70;8.90;;;7.10;99.90;;;;;;5057219;27;20220;-71
2022/02/22 09:59:31;;;;;;;13.90;5.20;;;7.20;99.90;;;;;;5048664;27;20227;-69
2022/02/22 10:01:57;;;;;;;13.83;7.23;;;7.20;99.90;;;;;;5027823;28;20687;-72
2022/02/22 10:04:24;;;;;;;8.27;4.40;;;7.20;99.90;;;;;;5117909;27;20319;-70
2022/02/22 10:06:59;;;;;;;6.70;3.50;;;7.20;99.90;;;;;;5027919;27;20464;-71
2022/02/22 10:09:25;;;;;;;5.40;2.77;;;7.20;99.90;;;;;;5024950;27;20462;-69
2022/02/22 10:11:52;;;;;;;52.10;24.83;;;7.30;99.90;;;;;;5052596;27;20558;-69
2022/02/22 10:14:29;;;;;;;49.53;22.57;;;7.30;99.90;;;;;;5061923;27;20461;-71
2022/02/22 10:16:57;;;;;;;55.43;25.00;;;7.30;99.90;;;;;;5083387;27;20467;-70
2022/02/22 10:19:28;;;;;;;23.57;11.20;;;7.30;99.90;;;;;;5011218;27;20914;-70
2022/02/22 10:21:56;;;;;;;11.03;7.57;;;7.30;99.90;;;;;;5059005;27;20465;-69
2022/02/22 10:24:24;;;;;;;15.33;6.83;;;7.40;99.90;;;;;;5013060;27;21042;-70
2022/02/22 10:27:10;;;;;;;4.23;3.07;;;7.40;99.90;;;;;;5064064;27;20498;-69
2022/02/22 10:29:37;;;;;;;3.80;2.00;;;7.40;99.90;;;;;;5030990;28;20969;-69
2022/02/22 10:32:13;;;;;;;6.47;2.37;;;7.50;99.90;;;;;;5107363;27;20537;-69
2022/02/22 10:34:40;;;;;;;26.17;11.80;;;7.50;99.90;;;;;;5062290;27;20481;-70
2022/02/22 10:37:05;;;;;;;15.60;9.40;;;7.50;99.90;;;;;;5031260;27;20528;-70
2022/02/22 10:39:31;;;;;;;7.60;4.93;;;7.60;99.90;;;;;;5020826;28;20549;-73
2022/02/22 10:41:57;;;;;;;6.63;2.73;;;7.60;99.90;;;;;;5135345;27;20220;-71
2022/02/22 10:44:39;;;;;;;8.17;2.40;;;7.60;99.90;;;;;;5119665;27;20224;-69
2022/02/22 10:47:18;;;;;;;7.20;3.10;;;7.70;99.90;;;;;;5054619;27;20464;-71
2022/02/22 10:49:46;;;;;;;9.73;5.80;;;7.80;99.90;;;;;;4998649;28;20493;-70
2022/02/22 10:52:12;;;;;;;15.47;7.10;;;7.80;99.90;;;;;;5055943;27;20457;-70
2022/02/22 10:54:37;;;;;;;12.03;7.57;;;7.90;99.90;;;;;;5055810;27;20474;-73
2022/02/22 10:57:04;;;;;;;14.70;8.53;;;7.90;99.90;;;;;;5085270;27;20231;-69
2022/02/22 10:59:31;;;;;;;3.90;3.47;;;8.00;99.90;;;;;;5055296;27;20719;-71
2022/02/22 11:02:00;;;;;;;5.53;2.57;;;8.10;99.90;;;;;;5045928;27;20835;-69
2022/02/22 11:04:27;;;;;;;4.53;2.10;;;8.10;99.90;;;;;;5033844;28;20466;-70
2022/02/22 11:06:52;;;;;;;1.83;1.70;;;8.10;99.90;;;;;;5069906;27;20459;-70
2022/02/22 11:09:20;;;;;;;3.43;1.90;;;8.10;99.90;;;;;;5042691;27;20481;-69
2022/02/22 11:12:00;;;;;;;3.63;1.80;;;8.10;99.90;;;;;;5039637;27;20215;-71
2022/02/22 11:14:30;;;;;;;1.90;1.80;;;8.20;99.90;;;;;;5038668;28;20515;-68
2022/02/22 11:16:58;;;;;;;6.87;1.87;;;8.20;99.90;;;;;;5034702;28;20522;-69
2022/02/22 11:19:38;;;;;;;6.83;2.80;;;8.30;99.90;;;;;;5038315;27;20459;-69
2022/02/22 11:22:17;;;;;;;5.63;3.40;;;8.40;99.90;;;;;;5017409;28;20908;-69
2022/02/22 11:24:48;;;;;;;3.47;2.43;;;8.50;99.90;;;;;;5046364;27;20466;-71
2022/02/22 11:27:27;;;;;;;6.90;3.30;;;8.50;99.90;;;;;;5109155;27;20468;-70
2022/02/22 11:30:07;;;;;;;6.20;3.07;;;8.50;99.90;;;;;;5014491;28;20458;-71
2022/02/22 11:32:37;;;;;;;6.33;2.23;;;8.60;99.90;;;;;;5060165;27;20525;-68
2022/02/22 11:35:13;;;;;;;3.70;2.50;;;8.60;99.90;;;;;;5060173;27;20454;-71
2022/02/22 11:37:39;;;;;;;2.97;2.13;;;8.60;99.90;;;;;;5027321;28;20506;-72
2022/02/22 11:40:06;;;;;;;5.97;1.90;;;8.60;99.90;;;;;;5041586;27;20450;-71
2022/02/22 11:42:33;;;;;;;5.67;2.10;;;8.60;99.90;;;;;;5094353;27;21046;-70
2022/02/22 11:45:00;;;;;;;3.57;1.60;;;8.60;99.90;;;;;;5049952;27;20620;-71
2022/02/22 11:47:27;;;;;;;2.77;1.80;;;8.60;99.90;;;;;;5016009;27;20461;-70
2022/02/22 11:49:58;;;;;;;1.87;1.67;;;8.60;99.90;;;;;;5041142;27;20462;-70
2022/02/22 11:52:38;;;;;;;2.00;1.80;;;8.60;99.90;;;;;;4996964;28;20470;-70
2022/02/22 11:55:08;;;;;;;2.80;2.20;;;8.60;99.90;;;;;;5031256;28;21017;-71
2022/02/22 11:57:55;;;;;;;9.97;2.50;;;8.50;99.90;;;;;;5025569;27;20499;-71
2022/02/22 12:00:40;;;;;;;10.73;2.10;;;8.50;99.90;;;;;;5047957;27;20460;-69
2022/02/22 12:03:14;;;;;;;7.27;2.80;;;8.50;99.90;;;;;;5043254;28;20521;-70
2022/02/22 12:05:42;;;;;;;6.13;1.60;;;8.50;99.90;;;;;;5053010;27;20449;-72
2022/02/22 12:08:22;;;;;;;7.30;2.00;;;8.50;99.90;;;;;;5054452;27;20450;-69
2022/02/22 12:10:57;;;;;;;4.80;2.00;;;8.50;99.90;;;;;;5044736;27;20478;-71
2022/02/22 12:13:39;;;;;;;3.70;2.00;;;8.50;99.90;;;;;;5027603;27;20465;-69
2022/02/22 12:16:17;;;;;;;3.80;2.30;;;8.50;99.90;;;;;;5011487;28;20898;-70
2022/02/22 12:18:44;;;;;;;3.77;2.10;;;8.60;99.90;;;;;;5026217;28;20466;-71
2022/02/22 12:21:10;;;;;;;4.47;2.33;;;8.60;99.90;;;;;;5091771;27;21269;-70
2022/02/22 12:23:38;;;;;;;3.37;2.00;;;8.60;99.90;;;;;;5054474;27;20488;-70
2022/02/22 12:26:07;;;;;;;4.67;2.00;;;8.60;99.90;;;;;;5086894;27;20580;-70
2022/02/22 12:28:44;;;;;;;5.83;2.23;;;8.60;99.90;;;;;;5113492;27;20875;-71
2022/02/22 12:31:10;;;;;;;8.83;2.13;;;8.70;99.90;;;;;;5084649;27;20969;-70
2022/02/22 12:33:35;;;;;;;9.20;2.37;;;8.70;99.90;;;;;;5060470;27;20466;-70
2022/02/22 12:36:28;;;;;;;5.10;2.50;;;8.70;99.90;;;;;;5084953;27;20244;-70
2022/02/22 12:38:58;;;;;;;6.83;2.10;;;8.70;99.90;;;;;;5075216;27;20285;-70
2022/02/22 12:41:30;;;;;;;8.57;2.33;;;8.70;99.90;;;;;;5063507;27;20453;-69
2022/02/22 12:43:56;;;;;;;6.33;2.53;;;8.70;99.90;;;;;;5062464;27;20481;-71
2022/02/22 12:46:22;;;;;;;6.97;2.60;;;8.70;99.90;;;;;;5067477;27;20683;-72
2022/02/22 12:48:49;;;;;;;2.63;2.10;;;8.60;99.90;;;;;;5081258;27;20635;-70
2022/02/22 12:51:24;;;;;;;2.03;1.83;;;8.60;99.90;;;;;;5016593;28;20599;-71
2022/02/22 12:54:02;;;;;;;7.23;2.27;;;8.60;99.90;;;;;;5042104;27;20466;-71
2022/02/22 12:56:47;;;;;;;11.33;3.10;;;8.60;99.90;;;;;;5087042;27;20496;-70